sensor_id;sensor_type;location;lat;lon;timestamp;temperature;humidity
69932;DHT22;57243;52.064;5.116;2023-05-10T00:02:25;19.10;73.10
69932;DHT22;57243;52.064;5.116;2023-05-10T00:04:50;19.10;73.20
69932;DHT22;57243;52.064;5.116;2023-05-10T00:07:16;19.10;73.10
69932;DHT22;57243;52.064;5.116;2023-05-10T00:09:43;19.10;73.20
69932;DHT22;57243;52.064;5.116;2023-05-10T00:12:08;19.10;73.10
69932;DHT22;57243;52.064;5.116;2023-05-10T00:14:34;19.10;73.20
69932;DHT22;57243;52.064;5.116;2023-05-10T00:16:59;19.10;73.10
69932;DHT22;57243;52.064;5.116;2023-05-10T00:19:25;19.10;73.20
69932;DHT22;57243;52.064;5.116;2023-05-10T00:21:50;19.10;73.20
69932;DHT22;57243;52.064;5.116;2023-05-10T00:24:16;19.10;73.20
69932;DHT22;57243;52.064;5.116;2023-05-10T00:26:41;19.10;73.30
69932;DHT22;57243;52.064;5.116;2023-05-10T00:29:07;19.10;73.20
69932;DHT22;57243;52.064;5.116;2023-05-10T00:31:33;19.10;73.10
69932;DHT22;57243;52.064;5.116;2023-05-10T00:33:58;19.10;73.10
69932;DHT22;57243;52.064;5.116;2023-05-10T00:36:24;19.10;73.20
69932;DHT22;57243;52.064;5.116;2023-05-10T00:38:49;19.10;73.20
69932;DHT22;57243;52.064;5.116;2023-05-10T00:41:15;19.10;73.30
69932;DHT22;57243;52.064;5.116;2023-05-10T00:43:41;19.10;73.20
69932;DHT22;57243;52.064;5.116;2023-05-10T00:46:06;19.10;73.30
69932;DHT22;57243;52.064;5.116;2023-05-10T00:48:32;19.10;73.20
69932;DHT22;57243;52.064;5.116;2023-05-10T00:50:58;19.10;73.20
69932;DHT22;57243;52.064;5.116;2023-05-10T00:53:23;19.10;73.20
69932;DHT22;57243;52.064;5.116;2023-05-10T00:55:49;19.10;73.20
69932;DHT22;57243;52.064;5.116;2023-05-10T00:58:15;19.10;73.20
69932;DHT22;57243;52.064;5.116;2023-05-10T01:00:41;19.10;73.20
69932;DHT22;57243;52.064;5.116;2023-05-10T01:03:07;19.10;73.10
69932;DHT22;57243;52.064;5.116;2023-05-10T01:05:33;19.10;73.20
69932;DHT22;57243;52.064;5.116;2023-05-10T01:07:58;19.10;73.20
69932;DHT22;57243;52.064;5.116;2023-05-10T01:10:23;19.10;73.20
69932;DHT22;57243;52.064;5.116;2023-05-10T01:12:49;19.10;73.10
69932;DHT22;57243;52.064;5.116;2023-05-10T01:15:15;19.10;73.20
69932;DHT22;57243;52.064;5.116;2023-05-10T01:17:42;19.10;73.20
69932;DHT22;57243;52.064;5.116;2023-05-10T01:20:09;19.10;73.20
69932;DHT22;57243;52.064;5.116;2023-05-10T01:25:26;19.10;73.20
69932;DHT22;57243;52.064;5.116;2023-05-10T01:33:18;19.10;73.20
69932;DHT22;57243;52.064;5.116;2023-05-10T01:35:52;19.10;73.20
69932;DHT22;57243;52.064;5.116;2023-05-10T01:38:24;19.00;73.20
69932;DHT22;57243;52.064;5.116;2023-05-10T01:40:58;19.10;73.20
69932;DHT22;57243;52.064;5.116;2023-05-10T01:43:30;19.10;73.20
69932;DHT22;57243;52.064;5.116;2023-05-10T01:46:02;19.10;73.30
69932;DHT22;57243;52.064;5.116;2023-05-10T01:48:36;19.10;73.30
69932;DHT22;57243;52.064;5.116;2023-05-10T01:51:02;19.10;73.30
69932;DHT22;57243;52.064;5.116;2023-05-10T01:53:28;19.10;73.30
69932;DHT22;57243;52.064;5.116;2023-05-10T01:55:54;19.10;73.20
69932;DHT22;57243;52.064;5.116;2023-05-10T01:58:21;19.10;73.30
69932;DHT22;57243;52.064;5.116;2023-05-10T02:00:48;19.10;73.20
69932;DHT22;57243;52.064;5.116;2023-05-10T02:03:14;19.10;73.20
69932;DHT22;57243;52.064;5.116;2023-05-10T02:05:41;19.10;73.30
69932;DHT22;57243;52.064;5.116;2023-05-10T02:08:10;19.10;73.20
69932;DHT22;57243;52.064;5.116;2023-05-10T02:10:36;19.10;73.20
69932;DHT22;57243;52.064;5.116;2023-05-10T02:13:02;19.10;73.20
69932;DHT22;57243;52.064;5.116;2023-05-10T02:15:28;19.10;73.20
69932;DHT22;57243;52.064;5.116;2023-05-10T02:17:55;19.10;73.20
69932;DHT22;57243;52.064;5.116;2023-05-10T02:20:20;19.00;73.10
69932;DHT22;57243;52.064;5.116;2023-05-10T02:22:47;19.10;73.20
69932;DHT22;57243;52.064;5.116;2023-05-10T02:25:14;19.10;73.20
69932;DHT22;57243;52.064;5.116;2023-05-10T02:27:41;19.10;73.20
69932;DHT22;57243;52.064;5.116;2023-05-10T02:30:07;19.10;73.10
69932;DHT22;57243;52.064;5.116;2023-05-10T02:32:33;19.10;73.10
69932;DHT22;57243;52.064;5.116;2023-05-10T02:34:59;19.10;73.20
69932;DHT22;57243;52.064;5.116;2023-05-10T02:37:25;19.00;73.20
69932;DHT22;57243;52.064;5.116;2023-05-10T02:39:53;19.10;73.30
69932;DHT22;57243;52.064;5.116;2023-05-10T02:42:19;19.00;73.20
69932;DHT22;57243;52.064;5.116;2023-05-10T02:44:45;19.10;73.20
69932;DHT22;57243;52.064;5.116;2023-05-10T02:47:12;19.10;73.20
69932;DHT22;57243;52.064;5.116;2023-05-10T02:49:38;19.10;73.20
69932;DHT22;57243;52.064;5.116;2023-05-10T02:52:04;19.00;73.20
69932;DHT22;57243;52.064;5.116;2023-05-10T02:54:33;19.00;73.20
69932;DHT22;57243;52.064;5.116;2023-05-10T02:57:00;19.00;73.10
69932;DHT22;57243;52.064;5.116;2023-05-10T02:59:29;19.00;73.20
69932;DHT22;57243;52.064;5.116;2023-05-10T03:01:54;19.00;73.20
69932;DHT22;57243;52.064;5.116;2023-05-10T03:04:20;19.00;73.20
69932;DHT22;57243;52.064;5.116;2023-05-10T03:06:45;19.00;73.10
69932;DHT22;57243;52.064;5.116;2023-05-10T03:09:11;19.00;73.10
69932;DHT22;57243;52.064;5.116;2023-05-10T03:11:55;19.00;73.10
69932;DHT22;57243;52.064;5.116;2023-05-10T03:16:56;19.00;73.20
69932;DHT22;57243;52.064;5.116;2023-05-10T03:21:54;19.00;73.20
69932;DHT22;57243;52.064;5.116;2023-05-10T03:24:22;19.00;73.20
69932;DHT22;57243;52.064;5.116;2023-05-10T03:26:48;19.00;73.70
69932;DHT22;57243;52.064;5.116;2023-05-10T03:29:15;19.10;73.60
69932;DHT22;57243;52.064;5.116;2023-05-10T03:31:41;19.10;73.50
69932;DHT22;57243;52.064;5.116;2023-05-10T03:34:06;19.10;73.40
69932;DHT22;57243;52.064;5.116;2023-05-10T03:36:32;19.10;73.40
69932;DHT22;57243;52.064;5.116;2023-05-10T03:38:58;19.10;73.30
69932;DHT22;57243;52.064;5.116;2023-05-10T03:41:23;19.10;73.30
69932;DHT22;57243;52.064;5.116;2023-05-10T03:43:50;19.10;73.40
69932;DHT22;57243;52.064;5.116;2023-05-10T03:46:15;19.00;73.30
69932;DHT22;57243;52.064;5.116;2023-05-10T03:48:41;19.10;73.40
69932;DHT22;57243;52.064;5.116;2023-05-10T03:51:06;19.10;73.40
69932;DHT22;57243;52.064;5.116;2023-05-10T03:53:32;19.10;73.50
69932;DHT22;57243;52.064;5.116;2023-05-10T03:55:57;19.00;73.50
69932;DHT22;57243;52.064;5.116;2023-05-10T03:58:23;19.00;73.50
69932;DHT22;57243;52.064;5.116;2023-05-10T04:00:48;19.00;73.50
69932;DHT22;57243;52.064;5.116;2023-05-10T04:03:14;19.10;73.60
69932;DHT22;57243;52.064;5.116;2023-05-10T04:05:39;19.00;73.60
69932;DHT22;57243;52.064;5.116;2023-05-10T04:08:05;19.00;73.60
69932;DHT22;57243;52.064;5.116;2023-05-10T04:10:31;19.00;73.60
69932;DHT22;57243;52.064;5.116;2023-05-10T04:12:57;19.00;73.50
69932;DHT22;57243;52.064;5.116;2023-05-10T04:15:22;19.00;73.50
69932;DHT22;57243;52.064;5.116;2023-05-10T04:17:48;19.00;73.70
69932;DHT22;57243;52.064;5.116;2023-05-10T04:20:14;19.00;73.70
69932;DHT22;57243;52.064;5.116;2023-05-10T04:22:39;19.00;73.70
69932;DHT22;57243;52.064;5.116;2023-05-10T04:25:06;19.10;73.70
69932;DHT22;57243;52.064;5.116;2023-05-10T04:27:32;19.00;74.60
69932;DHT22;57243;52.064;5.116;2023-05-10T04:29:57;19.10;75.10
69932;DHT22;57243;52.064;5.116;2023-05-10T04:32:23;19.00;75.60
69932;DHT22;57243;52.064;5.116;2023-05-10T04:34:48;19.10;75.80
69932;DHT22;57243;52.064;5.116;2023-05-10T04:37:14;19.10;75.60
69932;DHT22;57243;52.064;5.116;2023-05-10T04:39:39;19.10;75.60
69932;DHT22;57243;52.064;5.116;2023-05-10T04:42:05;19.00;75.20
69932;DHT22;57243;52.064;5.116;2023-05-10T04:44:33;19.00;75.10
69932;DHT22;57243;52.064;5.116;2023-05-10T04:46:59;19.00;75.20
69932;DHT22;57243;52.064;5.116;2023-05-10T04:49:24;19.00;75.30
69932;DHT22;57243;52.064;5.116;2023-05-10T04:51:50;19.00;75.20
69932;DHT22;57243;52.064;5.116;2023-05-10T04:54:15;19.00;75.20
69932;DHT22;57243;52.064;5.116;2023-05-10T04:56:41;18.90;75.10
69932;DHT22;57243;52.064;5.116;2023-05-10T04:59:06;18.90;75.00
69932;DHT22;57243;52.064;5.116;2023-05-10T05:01:32;18.90;74.90
69932;DHT22;57243;52.064;5.116;2023-05-10T05:03:58;18.80;74.90
69932;DHT22;57243;52.064;5.116;2023-05-10T05:06:23;18.80;74.80
69932;DHT22;57243;52.064;5.116;2023-05-10T05:08:50;18.80;74.50
69932;DHT22;57243;52.064;5.116;2023-05-10T05:11:16;18.70;74.50
69932;DHT22;57243;52.064;5.116;2023-05-10T05:13:41;18.70;74.50
69932;DHT22;57243;52.064;5.116;2023-05-10T05:16:07;18.70;74.40
69932;DHT22;57243;52.064;5.116;2023-05-10T05:18:32;18.70;74.30
69932;DHT22;57243;52.064;5.116;2023-05-10T05:20:58;18.70;74.30
69932;DHT22;57243;52.064;5.116;2023-05-10T05:23:23;18.70;74.20
69932;DHT22;57243;52.064;5.116;2023-05-10T05:25:53;18.70;73.50
69932;DHT22;57243;52.064;5.116;2023-05-10T05:28:19;18.70;73.60
69932;DHT22;57243;52.064;5.116;2023-05-10T05:30:44;18.60;73.40
69932;DHT22;57243;52.064;5.116;2023-05-10T05:33:10;18.60;73.20
69932;DHT22;57243;52.064;5.116;2023-05-10T05:35:36;18.60;73.50
69932;DHT22;57243;52.064;5.116;2023-05-10T05:38:02;18.60;73.50
69932;DHT22;57243;52.064;5.116;2023-05-10T05:40:27;18.60;73.40
69932;DHT22;57243;52.064;5.116;2023-05-10T05:42:53;18.60;72.30
69932;DHT22;57243;52.064;5.116;2023-05-10T05:45:18;18.60;72.80
69932;DHT22;57243;52.064;5.116;2023-05-10T05:47:44;18.60;73.10
69932;DHT22;57243;52.064;5.116;2023-05-10T05:50:09;18.70;72.60
69932;DHT22;57243;52.064;5.116;2023-05-10T05:52:35;18.70;73.10
69932;DHT22;57243;52.064;5.116;2023-05-10T05:55:01;18.60;73.00
69932;DHT22;57243;52.064;5.116;2023-05-10T05:57:27;18.60;73.00
69932;DHT22;57243;52.064;5.116;2023-05-10T05:59:52;18.60;72.90
69932;DHT22;57243;52.064;5.116;2023-05-10T06:02:18;18.60;72.50
69932;DHT22;57243;52.064;5.116;2023-05-10T06:04:43;18.60;73.00
69932;DHT22;57243;52.064;5.116;2023-05-10T06:07:09;18.60;73.00
69932;DHT22;57243;52.064;5.116;2023-05-10T06:09:34;18.60;72.50
69932;DHT22;57243;52.064;5.116;2023-05-10T06:11:59;18.60;72.80
69932;DHT22;57243;52.064;5.116;2023-05-10T06:14:25;18.60;72.50
69932;DHT22;57243;52.064;5.116;2023-05-10T06:16:51;18.60;72.60
69932;DHT22;57243;52.064;5.116;2023-05-10T06:19:16;18.60;72.30
69932;DHT22;57243;52.064;5.116;2023-05-10T06:21:41;18.60;72.00
69932;DHT22;57243;52.064;5.116;2023-05-10T06:24:07;18.60;71.30
69932;DHT22;57243;52.064;5.116;2023-05-10T06:26:33;18.50;72.10
69932;DHT22;57243;52.064;5.116;2023-05-10T06:28:58;18.60;71.90
69932;DHT22;57243;52.064;5.116;2023-05-10T06:31:24;18.60;71.90
69932;DHT22;57243;52.064;5.116;2023-05-10T06:33:50;18.50;71.10
69932;DHT22;57243;52.064;5.116;2023-05-10T06:36:16;18.50;70.80
69932;DHT22;57243;52.064;5.116;2023-05-10T06:38:41;18.50;71.60
69932;DHT22;57243;52.064;5.116;2023-05-10T06:41:06;18.50;72.30
69932;DHT22;57243;52.064;5.116;2023-05-10T06:43:32;18.60;72.20
69932;DHT22;57243;52.064;5.116;2023-05-10T06:45:57;18.60;72.00
69932;DHT22;57243;52.064;5.116;2023-05-10T06:48:23;18.60;71.70
69932;DHT22;57243;52.064;5.116;2023-05-10T06:50:48;18.60;71.60
69932;DHT22;57243;52.064;5.116;2023-05-10T06:53:14;18.70;71.90
69932;DHT22;57243;52.064;5.116;2023-05-10T06:55:40;18.60;71.80
69932;DHT22;57243;52.064;5.116;2023-05-10T06:58:06;18.60;71.80
69932;DHT22;57243;52.064;5.116;2023-05-10T07:00:31;18.70;72.20
69932;DHT22;57243;52.064;5.116;2023-05-10T07:02:57;18.70;72.20
69932;DHT22;57243;52.064;5.116;2023-05-10T07:05:23;18.70;71.90
69932;DHT22;57243;52.064;5.116;2023-05-10T07:07:49;18.80;72.00
69932;DHT22;57243;52.064;5.116;2023-05-10T07:10:14;18.80;71.90
69932;DHT22;57243;52.064;5.116;2023-05-10T07:12:40;18.80;71.80
69932;DHT22;57243;52.064;5.116;2023-05-10T07:15:05;18.80;71.70
69932;DHT22;57243;52.064;5.116;2023-05-10T07:17:31;18.80;71.40
69932;DHT22;57243;52.064;5.116;2023-05-10T07:19:58;18.80;71.20
69932;DHT22;57243;52.064;5.116;2023-05-10T07:22:24;18.80;71.20
69932;DHT22;57243;52.064;5.116;2023-05-10T07:24:50;18.80;71.20
69932;DHT22;57243;52.064;5.116;2023-05-10T07:27:15;18.80;71.10
69932;DHT22;57243;52.064;5.116;2023-05-10T07:29:41;18.80;71.10
69932;DHT22;57243;52.064;5.116;2023-05-10T07:32:06;18.80;71.00
69932;DHT22;57243;52.064;5.116;2023-05-10T07:34:31;18.80;70.70
69932;DHT22;57243;52.064;5.116;2023-05-10T07:37:00;18.80;70.70
69932;DHT22;57243;52.064;5.116;2023-05-10T07:39:29;18.80;70.70
69932;DHT22;57243;52.064;5.116;2023-05-10T07:41:55;18.80;70.70
69932;DHT22;57243;52.064;5.116;2023-05-10T07:44:21;18.80;70.70
69932;DHT22;57243;52.064;5.116;2023-05-10T07:46:46;18.80;70.50
69932;DHT22;57243;52.064;5.116;2023-05-10T07:49:12;18.80;72.20
69932;DHT22;57243;52.064;5.116;2023-05-10T07:51:38;18.90;72.10
69932;DHT22;57243;52.064;5.116;2023-05-10T07:54:03;18.90;72.30
69932;DHT22;57243;52.064;5.116;2023-05-10T07:56:30;18.90;72.10
69932;DHT22;57243;52.064;5.116;2023-05-10T07:58:57;18.90;72.00
69932;DHT22;57243;52.064;5.116;2023-05-10T08:01:23;18.90;72.00
69932;DHT22;57243;52.064;5.116;2023-05-10T08:03:49;18.90;71.80
69932;DHT22;57243;52.064;5.116;2023-05-10T08:06:16;18.90;71.80
69932;DHT22;57243;52.064;5.116;2023-05-10T08:08:42;18.90;71.60
69932;DHT22;57243;52.064;5.116;2023-05-10T08:11:07;18.90;71.50
69932;DHT22;57243;52.064;5.116;2023-05-10T08:13:33;19.00;71.60
69932;DHT22;57243;52.064;5.116;2023-05-10T08:15:59;19.00;71.50
69932;DHT22;57243;52.064;5.116;2023-05-10T08:18:24;19.00;70.60
69932;DHT22;57243;52.064;5.116;2023-05-10T08:20:50;19.00;70.90
69932;DHT22;57243;52.064;5.116;2023-05-10T08:23:15;18.90;70.50
69932;DHT22;57243;52.064;5.116;2023-05-10T08:25:41;19.00;71.20
69932;DHT22;57243;52.064;5.116;2023-05-10T08:28:06;18.90;69.90
69932;DHT22;57243;52.064;5.116;2023-05-10T08:30:32;18.90;69.30
69932;DHT22;57243;52.064;5.116;2023-05-10T08:32:57;18.80;69.70
69932;DHT22;57243;52.064;5.116;2023-05-10T08:35:23;18.90;70.60
69932;DHT22;57243;52.064;5.116;2023-05-10T08:37:50;18.90;70.50
69932;DHT22;57243;52.064;5.116;2023-05-10T08:40:15;18.90;71.30
69932;DHT22;57243;52.064;5.116;2023-05-10T08:42:43;18.90;71.30
69932;DHT22;57243;52.064;5.116;2023-05-10T08:45:10;19.00;71.40
69932;DHT22;57243;52.064;5.116;2023-05-10T08:47:36;19.00;71.30
69932;DHT22;57243;52.064;5.116;2023-05-10T08:50:03;19.00;71.20
69932;DHT22;57243;52.064;5.116;2023-05-10T08:52:29;19.00;71.30
69932;DHT22;57243;52.064;5.116;2023-05-10T08:54:57;19.00;71.00
69932;DHT22;57243;52.064;5.116;2023-05-10T08:57:23;19.00;71.30
69932;DHT22;57243;52.064;5.116;2023-05-10T08:59:49;19.10;71.20
69932;DHT22;57243;52.064;5.116;2023-05-10T09:02:14;19.10;71.30
69932;DHT22;57243;52.064;5.116;2023-05-10T09:04:40;19.10;71.40
69932;DHT22;57243;52.064;5.116;2023-05-10T09:07:06;19.10;71.40
69932;DHT22;57243;52.064;5.116;2023-05-10T09:09:32;19.10;71.30
69932;DHT22;57243;52.064;5.116;2023-05-10T09:11:58;19.10;71.40
69932;DHT22;57243;52.064;5.116;2023-05-10T09:14:25;19.10;71.50
69932;DHT22;57243;52.064;5.116;2023-05-10T09:16:50;19.10;71.50
69932;DHT22;57243;52.064;5.116;2023-05-10T09:19:16;19.10;71.60
69932;DHT22;57243;52.064;5.116;2023-05-10T09:21:41;19.10;71.70
69932;DHT22;57243;52.064;5.116;2023-05-10T09:24:07;19.10;71.70
69932;DHT22;57243;52.064;5.116;2023-05-10T09:26:33;19.10;71.80
69932;DHT22;57243;52.064;5.116;2023-05-10T09:28:59;19.10;71.80
69932;DHT22;57243;52.064;5.116;2023-05-10T09:31:28;19.10;72.20
69932;DHT22;57243;52.064;5.116;2023-05-10T09:34:08;19.10;72.50
69932;DHT22;57243;52.064;5.116;2023-05-10T09:36:33;19.20;72.40
69932;DHT22;57243;52.064;5.116;2023-05-10T09:38:59;19.20;71.20
69932;DHT22;57243;52.064;5.116;2023-05-10T09:41:25;19.10;70.40
69932;DHT22;57243;52.064;5.116;2023-05-10T09:43:51;19.10;70.50
69932;DHT22;57243;52.064;5.116;2023-05-10T09:46:20;19.00;70.60
69932;DHT22;57243;52.064;5.116;2023-05-10T09:48:46;19.00;70.80
69932;DHT22;57243;52.064;5.116;2023-05-10T09:51:34;19.00;70.40
69932;DHT22;57243;52.064;5.116;2023-05-10T09:56:36;19.00;70.60
69932;DHT22;57243;52.064;5.116;2023-05-10T09:59:04;18.90;70.50
69932;DHT22;57243;52.064;5.116;2023-05-10T10:01:30;18.90;70.40
69932;DHT22;57243;52.064;5.116;2023-05-10T10:03:56;18.90;70.20
69932;DHT22;57243;52.064;5.116;2023-05-10T10:06:23;18.90;70.00
69932;DHT22;57243;52.064;5.116;2023-05-10T10:08:48;18.90;70.00
69932;DHT22;57243;52.064;5.116;2023-05-10T10:11:14;18.90;70.10
69932;DHT22;57243;52.064;5.116;2023-05-10T10:13:39;18.90;69.80
69932;DHT22;57243;52.064;5.116;2023-05-10T10:16:05;18.90;69.70
69932;DHT22;57243;52.064;5.116;2023-05-10T10:18:31;18.90;69.70
69932;DHT22;57243;52.064;5.116;2023-05-10T10:20:57;18.90;69.60
69932;DHT22;57243;52.064;5.116;2023-05-10T10:23:23;18.90;69.80
69932;DHT22;57243;52.064;5.116;2023-05-10T10:25:48;18.90;69.40
69932;DHT22;57243;52.064;5.116;2023-05-10T10:28:30;18.90;69.60
69932;DHT22;57243;52.064;5.116;2023-05-10T10:31:01;18.90;69.60
69932;DHT22;57243;52.064;5.116;2023-05-10T10:35:58;18.90;69.30
69932;DHT22;57243;52.064;5.116;2023-05-10T10:38:24;18.90;69.20
69932;DHT22;57243;52.064;5.116;2023-05-10T10:41:01;18.90;68.90
69932;DHT22;57243;52.064;5.116;2023-05-10T10:43:28;18.90;68.80
69932;DHT22;57243;52.064;5.116;2023-05-10T10:48:38;18.90;68.60
69932;DHT22;57243;52.064;5.116;2023-05-10T10:51:04;18.90;68.40
69932;DHT22;57243;52.064;5.116;2023-05-10T10:53:29;18.90;69.10
69932;DHT22;57243;52.064;5.116;2023-05-10T10:56:05;19.00;69.90
69932;DHT22;57243;52.064;5.116;2023-05-10T10:58:33;19.00;69.50
69932;DHT22;57243;52.064;5.116;2023-05-10T11:03:36;18.90;68.80
69932;DHT22;57243;52.064;5.116;2023-05-10T11:06:02;18.90;68.60
69932;DHT22;57243;52.064;5.116;2023-05-10T11:08:32;18.90;68.70
69932;DHT22;57243;52.064;5.116;2023-05-10T11:15:52;19.00;68.40
69932;DHT22;57243;52.064;5.116;2023-05-10T11:18:19;19.00;68.30
69932;DHT22;57243;52.064;5.116;2023-05-10T11:20:49;19.00;68.20
69932;DHT22;57243;52.064;5.116;2023-05-10T11:23:15;19.00;68.30
69932;DHT22;57243;52.064;5.116;2023-05-10T11:25:43;19.00;68.20
69932;DHT22;57243;52.064;5.116;2023-05-10T11:28:12;19.00;68.20
69932;DHT22;57243;52.064;5.116;2023-05-10T11:30:38;19.00;68.20
69932;DHT22;57243;52.064;5.116;2023-05-10T11:33:04;19.00;68.20
69932;DHT22;57243;52.064;5.116;2023-05-10T11:35:30;19.00;68.10
69932;DHT22;57243;52.064;5.116;2023-05-10T11:37:55;19.00;68.10
69932;DHT22;57243;52.064;5.116;2023-05-10T11:40:21;19.00;68.10
69932;DHT22;57243;52.064;5.116;2023-05-10T11:42:50;19.00;68.10
69932;DHT22;57243;52.064;5.116;2023-05-10T11:45:15;19.00;68.10
69932;DHT22;57243;52.064;5.116;2023-05-10T11:47:41;19.00;68.00
69932;DHT22;57243;52.064;5.116;2023-05-10T11:50:08;19.00;68.00
69932;DHT22;57243;52.064;5.116;2023-05-10T11:52:37;19.00;67.90
69932;DHT22;57243;52.064;5.116;2023-05-10T11:55:03;19.00;67.90
69932;DHT22;57243;52.064;5.116;2023-05-10T11:57:28;19.00;67.80
69932;DHT22;57243;52.064;5.116;2023-05-10T11:59:54;19.00;67.80
69932;DHT22;57243;52.064;5.116;2023-05-10T12:02:21;18.90;67.70
69932;DHT22;57243;52.064;5.116;2023-05-10T12:04:46;18.90;67.70
69932;DHT22;57243;52.064;5.116;2023-05-10T12:07:12;18.90;67.90
69932;DHT22;57243;52.064;5.116;2023-05-10T12:09:42;18.90;67.80
69932;DHT22;57243;52.064;5.116;2023-05-10T12:12:07;18.90;67.70
69932;DHT22;57243;52.064;5.116;2023-05-10T12:14:36;18.90;67.80
69932;DHT22;57243;52.064;5.116;2023-05-10T12:17:01;18.90;67.70
69932;DHT22;57243;52.064;5.116;2023-05-10T12:19:27;18.90;67.50
69932;DHT22;57243;52.064;5.116;2023-05-10T12:21:53;18.90;67.70
69932;DHT22;57243;52.064;5.116;2023-05-10T12:24:18;18.90;67.60
69932;DHT22;57243;52.064;5.116;2023-05-10T12:26:47;18.90;67.70
69932;DHT22;57243;52.064;5.116;2023-05-10T12:29:19;18.90;67.60
69932;DHT22;57243;52.064;5.116;2023-05-10T12:31:51;18.90;67.70
69932;DHT22;57243;52.064;5.116;2023-05-10T12:34:29;18.90;67.70
69932;DHT22;57243;52.064;5.116;2023-05-10T12:36:55;18.90;67.70
69932;DHT22;57243;52.064;5.116;2023-05-10T12:39:21;18.90;67.60
69932;DHT22;57243;52.064;5.116;2023-05-10T12:41:46;18.90;67.60
69932;DHT22;57243;52.064;5.116;2023-05-10T12:44:12;18.90;67.60
69932;DHT22;57243;52.064;5.116;2023-05-10T12:46:37;18.90;67.80
69932;DHT22;57243;52.064;5.116;2023-05-10T12:49:03;18.90;67.80
69932;DHT22;57243;52.064;5.116;2023-05-10T12:51:28;18.90;67.50
69932;DHT22;57243;52.064;5.116;2023-05-10T12:53:54;18.90;67.50
69932;DHT22;57243;52.064;5.116;2023-05-10T12:56:19;18.90;67.30
69932;DHT22;57243;52.064;5.116;2023-05-10T12:58:45;18.90;67.50
69932;DHT22;57243;52.064;5.116;2023-05-10T13:01:14;18.90;67.50
69932;DHT22;57243;52.064;5.116;2023-05-10T13:03:39;18.90;67.50
69932;DHT22;57243;52.064;5.116;2023-05-10T13:06:05;18.90;67.50
69932;DHT22;57243;52.064;5.116;2023-05-10T13:08:31;18.90;67.70
69932;DHT22;57243;52.064;5.116;2023-05-10T13:11:01;18.90;68.00
69932;DHT22;57243;52.064;5.116;2023-05-10T13:13:30;18.90;68.20
69932;DHT22;57243;52.064;5.116;2023-05-10T13:15:55;18.90;67.90
69932;DHT22;57243;52.064;5.116;2023-05-10T13:18:21;18.90;68.00
69932;DHT22;57243;52.064;5.116;2023-05-10T13:20:46;18.90;68.10
69932;DHT22;57243;52.064;5.116;2023-05-10T13:23:12;18.90;68.20
69932;DHT22;57243;52.064;5.116;2023-05-10T13:25:37;18.90;69.10
69932;DHT22;57243;52.064;5.116;2023-05-10T13:28:03;19.00;69.90
69932;DHT22;57243;52.064;5.116;2023-05-10T13:30:29;19.10;69.10
69932;DHT22;57243;52.064;5.116;2023-05-10T13:32:54;19.10;69.70
69932;DHT22;57243;52.064;5.116;2023-05-10T13:35:20;19.10;69.70
69932;DHT22;57243;52.064;5.116;2023-05-10T13:37:45;19.10;69.80
69932;DHT22;57243;52.064;5.116;2023-05-10T13:40:11;19.00;69.70
69932;DHT22;57243;52.064;5.116;2023-05-10T13:42:37;19.10;69.40
69932;DHT22;57243;52.064;5.116;2023-05-10T13:45:02;19.10;69.40
69932;DHT22;57243;52.064;5.116;2023-05-10T13:47:28;19.10;69.60
69932;DHT22;57243;52.064;5.116;2023-05-10T13:49:54;19.10;69.70
69932;DHT22;57243;52.064;5.116;2023-05-10T13:52:19;19.10;68.70
69932;DHT22;57243;52.064;5.116;2023-05-10T13:54:45;19.10;69.60
69932;DHT22;57243;52.064;5.116;2023-05-10T13:57:11;19.10;69.40
69932;DHT22;57243;52.064;5.116;2023-05-10T13:59:39;19.10;69.50
69932;DHT22;57243;52.064;5.116;2023-05-10T14:02:04;19.10;69.30
69932;DHT22;57243;52.064;5.116;2023-05-10T14:04:30;19.10;69.60
69932;DHT22;57243;52.064;5.116;2023-05-10T14:06:56;19.10;68.60
69932;DHT22;57243;52.064;5.116;2023-05-10T14:09:22;19.10;69.20
69932;DHT22;57243;52.064;5.116;2023-05-10T14:11:47;19.10;68.70
69932;DHT22;57243;52.064;5.116;2023-05-10T14:14:13;19.10;68.80
69932;DHT22;57243;52.064;5.116;2023-05-10T14:16:42;19.10;69.10
69932;DHT22;57243;52.064;5.116;2023-05-10T14:19:08;19.10;68.00
69932;DHT22;57243;52.064;5.116;2023-05-10T14:21:33;19.10;68.40
69932;DHT22;57243;52.064;5.116;2023-05-10T14:23:59;19.10;69.40
69932;DHT22;57243;52.064;5.116;2023-05-10T14:26:24;19.10;69.60
69932;DHT22;57243;52.064;5.116;2023-05-10T14:28:51;19.10;68.70
69932;DHT22;57243;52.064;5.116;2023-05-10T14:31:17;19.10;69.50
69932;DHT22;57243;52.064;5.116;2023-05-10T14:33:44;19.20;69.90
69932;DHT22;57243;52.064;5.116;2023-05-10T14:36:10;19.20;70.20
69932;DHT22;57243;52.064;5.116;2023-05-10T14:38:35;19.20;70.00
69932;DHT22;57243;52.064;5.116;2023-05-10T14:41:01;19.10;70.30
69932;DHT22;57243;52.064;5.116;2023-05-10T14:43:27;19.10;69.30
69932;DHT22;57243;52.064;5.116;2023-05-10T14:45:53;19.10;69.60
69932;DHT22;57243;52.064;5.116;2023-05-10T14:48:19;19.10;70.10
69932;DHT22;57243;52.064;5.116;2023-05-10T14:50:45;19.00;70.00
69932;DHT22;57243;52.064;5.116;2023-05-10T14:53:11;19.10;70.10
69932;DHT22;57243;52.064;5.116;2023-05-10T14:55:36;19.00;70.00
69932;DHT22;57243;52.064;5.116;2023-05-10T14:58:03;19.00;69.90
69932;DHT22;57243;52.064;5.116;2023-05-10T15:00:29;19.00;69.90
69932;DHT22;57243;52.064;5.116;2023-05-10T15:02:55;19.00;69.40
69932;DHT22;57243;52.064;5.116;2023-05-10T15:05:20;19.00;68.60
69932;DHT22;57243;52.064;5.116;2023-05-10T15:07:46;19.00;69.30
69932;DHT22;57243;52.064;5.116;2023-05-10T15:10:11;19.00;69.40
69932;DHT22;57243;52.064;5.116;2023-05-10T15:12:37;19.00;69.40
69932;DHT22;57243;52.064;5.116;2023-05-10T15:15:03;19.00;68.90
69932;DHT22;57243;52.064;5.116;2023-05-10T15:17:29;19.00;68.40
69932;DHT22;57243;52.064;5.116;2023-05-10T15:19:55;19.00;68.40
69932;DHT22;57243;52.064;5.116;2023-05-10T15:22:20;19.00;68.40
69932;DHT22;57243;52.064;5.116;2023-05-10T15:24:47;19.00;68.50
69932;DHT22;57243;52.064;5.116;2023-05-10T15:27:12;19.00;68.70
69932;DHT22;57243;52.064;5.116;2023-05-10T15:29:38;19.00;68.30
69932;DHT22;57243;52.064;5.116;2023-05-10T15:32:03;19.00;68.80
69932;DHT22;57243;52.064;5.116;2023-05-10T15:34:29;19.00;68.40
69932;DHT22;57243;52.064;5.116;2023-05-10T15:36:54;19.00;68.60
69932;DHT22;57243;52.064;5.116;2023-05-10T15:39:20;19.00;68.60
69932;DHT22;57243;52.064;5.116;2023-05-10T15:41:45;19.00;70.30
69932;DHT22;57243;52.064;5.116;2023-05-10T15:44:12;19.00;70.70
69932;DHT22;57243;52.064;5.116;2023-05-10T15:46:38;19.10;70.90
69932;DHT22;57243;52.064;5.116;2023-05-10T15:49:03;19.10;70.30
69932;DHT22;57243;52.064;5.116;2023-05-10T15:51:29;19.10;70.20
69932;DHT22;57243;52.064;5.116;2023-05-10T15:53:54;19.10;70.50